Time;durP1;ratioP1;P1;durP2;ratioP2;P2;SDS_P1;SDS_P2;PMS_P1;PMS_P2;Temp;Humidity;BMP_temperature;BMP_pressure;BME280_temperature;BME280_humidity;BME280_pressure;Samples;Min_cycle;Max_cycle;Signal;HPM_P1;HPM_P2
2021/03/28 15:02:56;;;;;;;12.17;4.33;;;;;;;9.18;48.17;100234.01;115024;1164;103194;-78
2021/03/28 15:06:13;;;;;;;8.63;3.53;;;;;;;9.20;48.22;100247.23;114850;1199;103143;-78
2021/03/28 15:08:55;;;;;;;15.10;4.53;;;;;;;9.15;48.29;100234.19;115051;1199;103165;-81
2021/03/28 15:11:45;;;;;;;12.87;4.10;;;;;;;9.13;48.08;100241.36;114790;1200;103220;-79
2021/03/28 15:14:37;;;;;;;16.30;5.13;;;;;;;9.12;47.99;100250.26;114973;1200;103095;-77
2021/03/28 15:17:41;;;;;;;14.23;4.50;;;;;;;9.08;48.15;100246.88;115001;1199;103307;-77
2021/03/28 15:20:32;;;;;;;12.23;4.57;;;;;;;9.04;47.70;100252.41;114752;1199;103068;-79
2021/03/28 15:23:20;;;;;;;23.23;8.87;;;;;;;8.99;47.74;100247.30;115004;1199;103060;-81
2021/03/28 15:26:22;;;;;;;15.70;4.87;;;;;;;8.94;47.94;100249.34;114943;1199;103136;-78
2021/03/28 15:28:57;;;;;;;12.77;5.20;;;;;;;8.89;47.91;100246.88;114953;1199;103140;-80
2021/03/28 15:31:39;;;;;;;12.40;4.60;;;;;;;8.90;47.62;100245.11;114852;1200;102717;-79
2021/03/28 15:34:33;;;;;;;13.63;4.77;;;;;;;8.91;47.52;100247.67;114954;1199;103069;-81
2021/03/28 15:37:35;;;;;;;18.67;5.97;;;;;;;8.90;47.88;100245.95;114940;1200;103053;-75
2021/03/28 15:40:17;;;;;;;13.87;5.33;;;;;;;8.89;47.55;100251.34;114869;1198;103597;-77
2021/03/28 15:42:59;;;;;;;17.00;5.87;;;;;;;8.88;47.87;100252.27;114927;1199;103073;-77
2021/03/28 15:45:35;;;;;;;15.33;5.70;;;;;;;8.83;47.66;100251.63;114677;1199;103260;-76
2021/03/28 15:48:37;;;;;;;16.17;5.43;;;;;;;8.81;47.53;100253.48;114911;1198;103153;-77
2021/03/28 15:51:16;;;;;;;13.47;4.47;;;;;;;8.79;47.49;100254.42;114971;1199;103164;-76
2021/03/28 15:54:04;;;;;;;16.45;5.45;;;;;;;8.77;47.69;100255.41;114850;1199;103075;-76
2021/03/28 15:57:05;;;;;;;15.63;5.97;;;;;;;8.73;47.26;100257.34;114856;1200;103136;-76
2021/03/28 15:59:52;;;;;;;15.80;5.33;;;;;;;8.69;47.26;100255.77;114889;1200;102955;-75
2021/03/28 16:02:40;;;;;;;12.33;4.97;;;;;;;8.68;47.39;100247.89;114717;1200;103184;-78
2021/03/28 16:05:07;;;;;;;18.50;6.20;;;;;;;8.68;47.37;100254.05;114899;1200;103255;-78
2021/03/28 16:08:16;;;;;;;12.80;4.80;;;;;;;8.69;47.33;100254.92;114911;1200;103143;-80
2021/03/28 16:11:07;;;;;;;20.27;6.83;;;;;;;8.62;47.46;100252.55;114757;1200;103271;-81
2021/03/28 16:14:16;;;;;;;12.57;4.97;;;;;;;8.59;47.29;100257.98;114820;1200;103078;-78
2021/03/28 16:17:04;;;;;;;17.00;5.85;;;;;;;8.56;47.45;100258.13;114825;1200;103210;-73
2021/03/28 16:19:54;;;;;;;20.45;7.40;;;;;;;8.54;47.11;100257.33;114800;1200;103198;-78
2021/03/28 16:23:03;;;;;;;19.33;6.47;;;;;;;8.48;47.35;100253.17;114764;1199;103262;-78
2021/03/28 16:26:07;;;;;;;16.70;5.93;;;;;;;8.44;47.24;100248.03;114925;1200;103012;-77
2021/03/28 16:28:55;;;;;;;15.20;5.25;;;;;;;8.41;47.13;100256.12;114911;1199;103136;-75
2021/03/28 16:31:53;;;;;;;16.40;5.47;;;;;;;8.39;47.25;100252.67;114824;1199;103038;-74
2021/03/28 16:34:36;;;;;;;18.90;6.50;;;;;;;8.35;47.26;100258.11;114882;1198;103046;-79
2021/03/28 16:37:25;;;;;;;16.90;6.17;;;;;;;8.35;47.06;100255.45;114867;1200;103066;-75
2021/03/28 16:40:00;;;;;;;20.30;6.73;;;;;;;8.29;47.34;100254.88;114831;1199;103034;-75
2021/03/28 16:42:50;;;;;;;19.37;6.90;;;;;;;8.25;47.18;100258.59;114839;1200;103072;-75
2021/03/28 16:45:41;;;;;;;19.70;6.90;;;;;;;8.24;47.17;100255.09;114813;1200;103076;-76
2021/03/28 16:48:43;;;;;;;21.40;7.33;;;;;;;8.22;46.98;100250.77;114825;1199;103191;-76
2021/03/28 16:51:22;;;;;;;23.90;7.90;;;;;;;8.17;46.88;100257.13;114851;1200;103075;-75
2021/03/28 16:53:59;;;;;;;26.43;8.83;;;;;;;8.16;46.78;100254.56;114917;1199;103082;-74
2021/03/28 16:56:40;;;;;;;26.40;9.10;;;;;;;8.14;46.95;100256.42;114836;1200;103300;-76
2021/03/28 16:59:27;;;;;;;25.45;10.00;;;;;;;8.11;46.95;100267.15;114826;1199;103057;-76
2021/03/28 17:01:55;;;;;;;29.40;10.40;;;;;;;8.07;47.03;100273.50;114855;1199;103062;-75
2021/03/28 17:04:37;;;;;;;25.60;10.70;;;;;;;8.03;47.08;100265.69;114919;1198;103095;-76
2021/03/28 17:07:16;;;;;;;27.67;12.07;;;;;;;7.98;47.21;100264.17;114821;1198;103118;-76
2021/03/28 17:09:46;;;;;;;26.27;10.63;;;;;;;7.93;46.83;100263.50;114914;1199;103544;-75
2021/03/28 17:12:43;;;;;;;27.20;11.37;;;;;;;7.88;46.99;100263.71;114874;1199;103216;-77
2021/03/28 17:15:57;;;;;;;29.03;12.07;;;;;;;7.82;46.93;100262.16;114887;1199;103073;-76
2021/03/28 17:18:24;;;;;;;27.60;11.63;;;;;;;7.77;47.04;100271.23;114761;1199;103488;-76
2021/03/28 17:21:20;;;;;;;28.33;12.13;;;;;;;7.73;46.75;100267.88;114898;1199;103187;-76
2021/03/28 17:24:18;;;;;;;34.47;13.60;;;;;;;7.69;46.84;100268.92;114845;1200;103123;-75
2021/03/28 17:26:49;;;;;;;33.03;13.03;;;;;;;7.64;46.86;100269.09;114889;1200;103631;-76
2021/03/28 17:29:32;;;;;;;30.73;12.70;;;;;;;7.63;46.76;100272.66;114961;1200;103044;-76
2021/03/28 17:32:22;;;;;;;30.25;12.73;;;;;;;7.59;46.75;100284.30;114856;1200;103070;-77
2021/03/28 17:35:27;;;;;;;27.40;11.77;;;;;;;7.57;46.90;100279.08;114918;1199;103095;-77
2021/03/28 17:38:00;;;;;;;26.30;9.95;;;;;;;7.54;46.84;100292.45;114935;1199;103124;-77
2021/03/28 17:40:28;;;;;;;24.83;9.30;;;;;;;7.53;46.87;100281.94;115054;1199;103069;-79
2021/03/28 17:42:57;;;;;;;21.77;8.67;;;;;;;7.52;46.61;100282.86;114886;1198;103128;-80
2021/03/28 17:45:27;;;;;;;24.00;9.30;;;;;;;7.47;46.93;100274.23;114889;1200;103108;-80
2021/03/28 17:48:04;;;;;;;27.13;8.63;;;;;;;7.47;46.96;100290.97;114891;1199;103088;-79
2021/03/28 17:50:35;;;;;;;22.40;9.40;;;;;;;7.46;46.90;100281.30;114882;1198;103159;-80
2021/03/28 17:53:22;;;;;;;26.93;8.83;;;;;;;7.44;46.86;100281.38;114861;1200;103166;-81
2021/03/28 17:55:53;;;;;;;20.80;8.67;;;;;;;7.42;46.78;100287.63;115159;1199;103069;-81
2021/03/28 17:58:29;;;;;;;23.33;9.03;;;;;;;7.40;46.87;100289.48;114929;1199;103067;-82
2021/03/28 18:01:07;;;;;;;25.70;9.90;;;;;;;7.38;46.63;100293.97;114887;1200;103136;-80
2021/03/28 18:03:42;;;;;;;24.07;9.90;;;;;;;7.36;46.67;100294.05;115277;1199;103040;-81
2021/03/28 18:06:13;;;;;;;24.43;10.70;;;;;;;7.35;46.84;100296.73;114875;1199;103082;-83
2021/03/28 18:08:43;;;;;;;27.33;11.50;;;;;;;7.31;46.79;100296.02;114801;1199;103210;-81
2021/03/28 18:11:28;;;;;;;;;;;;;;;7.29;46.80;100297.86;115219;1205;103092;-77
2021/03/28 18:14:07;;;;;;;28.13;11.93;;;;;;;7.25;47.08;100296.25;114813;1199;103178;-80
2021/03/28 18:16:36;;;;;;;27.70;12.40;;;;;;;7.24;46.77;100303.34;114706;1200;103286;-80
2021/03/28 18:19:06;;;;;;;30.15;13.40;;;;;;;7.25;47.09;100306.83;114697;1199;103069;-78
2021/03/28 18:21:56;;;;;;;30.40;14.40;;;;;;;7.23;46.99;100304.27;114932;1199;103627;-85
2021/03/28 18:24:30;;;;;;;28.77;12.93;;;;;;;7.22;47.03;100309.59;115944;1199;103069;-85
2021/03/28 18:27:21;;;;;;;27.33;13.43;;;;;;;7.19;46.89;100307.95;115629;1198;103153;-85
2021/03/28 18:29:56;;;;;;;32.43;13.17;;;;;;;7.17;47.09;100316.84;115418;1200;103226;-83
2021/03/28 18:32:28;;;;;;;26.80;13.30;;;;;;;7.15;46.75;100311.63;115344;1199;103156;-76
2021/03/28 18:35:20;;;;;;;29.50;13.10;;;;;;;7.13;46.78;100313.47;114703;1200;103174;-79
2021/03/28 18:37:55;;;;;;;28.40;12.90;;;;;;;7.11;47.02;100313.55;114622;1200;103056;-78
2021/03/28 18:40:28;;;;;;;24.60;10.70;;;;;;;7.10;47.00;100308.30;114683;1200;103130;-79
2021/03/28 18:43:03;;;;;;;23.90;11.00;;;;;;;7.10;47.08;100318.88;116709;1199;102496;-76
2021/03/28 18:45:39;;;;;;;26.65;11.15;;;;;;;7.10;47.02;100324.17;116660;1199;101307;-77
2021/03/28 18:48:46;;;;;;;22.77;10.17;;;;;;;7.10;46.94;100324.17;116709;1199;101709;-76
2021/03/28 18:51:13;;;;;;;28.27;10.67;;;;;;;7.09;46.95;100323.33;115902;1200;103060;-79
2021/03/28 18:53:53;;;;;;;22.43;10.37;;;;;;;7.11;47.19;100326.78;114840;1200;103037;-76
2021/03/28 18:56:25;;;;;;;25.93;10.33;;;;;;;7.11;47.21;100324.13;114845;1200;103638;-80
2021/03/28 18:58:58;;;;;;;23.30;9.60;;;;;;;7.11;47.01;100329.42;114796;1200;103211;-79
2021/03/28 19:01:39;;;;;;;20.58;9.05;;;;;;;7.12;47.25;100332.91;114869;1198;103030;-79
2021/03/28 19:04:06;;;;;;;21.93;9.30;;;;;;;7.10;47.28;100335.63;114874;1200;103076;-78
2021/03/28 19:06:41;;;;;;;24.47;10.30;;;;;;;7.11;47.14;100328.55;114957;1198;103062;-78
2021/03/28 19:09:32;;;;;;;24.17;9.60;;;;;;;7.12;47.17;100335.56;114856;1200;103207;-78
2021/03/28 19:12:08;;;;;;;23.93;9.60;;;;;;;7.12;47.11;100339.09;114833;1200;103075;-82
2021/03/28 19:14:39;;;;;;;23.47;9.77;;;;;;;7.11;47.05;100339.13;114880;1199;103139;-80
2021/03/28 19:17:20;;;;;;;24.20;10.50;;;;;;;7.11;47.36;100339.13;114913;1199;103076;-79
2021/03/28 19:19:59;;;;;;;24.75;10.05;;;;;;;7.08;47.21;100336.59;114920;1199;103082;-80
2021/03/28 19:22:54;;;;;;;26.20;10.85;;;;;;;7.07;47.39;100326.93;114866;1199;103423;-82
2021/03/28 19:25:35;;;;;;;26.80;11.83;;;;;;;7.06;47.31;100334.02;114858;1199;103593;-77
2021/03/28 19:28:24;;;;;;;25.50;10.90;;;;;;;7.03;47.34;100331.48;114953;1199;103526;-77
2021/03/28 19:30:55;;;;;;;26.60;12.17;;;;;;;7.02;47.18;100329.77;115019;1199;103072;-77
2021/03/28 19:33:43;;;;;;;29.43;11.97;;;;;;;6.98;47.00;100336.09;114921;1199;103037;-77
2021/03/28 19:36:14;;;;;;;28.70;12.47;;;;;;;6.95;47.13;100334.40;114927;1199;103102;-77
2021/03/28 19:38:44;;;;;;;30.10;11.83;;;;;;;6.92;47.29;100341.60;114572;1200;103136;-80
2021/03/28 19:41:19;;;;;;;27.13;12.53;;;;;;;6.89;47.30;100336.42;114917;1199;103124;-79
2021/03/28 19:44:10;;;;;;;28.70;12.40;;;;;;;6.82;47.20;100330.51;114910;1199;103089;-79
2021/03/28 19:47:01;;;;;;;27.17;12.97;;;;;;;6.74;47.24;100333.41;114887;1199;103038;-74
2021/03/28 19:49:34;;;;;;;30.07;13.33;;;;;;;6.68;47.18;100331.02;114885;1199;103150;-73
2021/03/28 19:52:09;;;;;;;28.27;13.13;;;;;;;6.60;47.18;100333.92;114741;1197;103059;-72
2021/03/28 19:54:50;;;;;;;29.30;12.60;;;;;;;6.55;47.21;100336.73;114812;1199;103034;-73
2021/03/28 19:57:24;;;;;;;29.70;12.33;;;;;;;6.49;47.39;100334.31;114801;1200;102612;-74
2021/03/28 20:00:04;;;;;;;25.07;10.63;;;;;;;6.42;47.35;100327.51;114988;1200;103149;-74
2021/03/28 20:02:42;;;;;;;27.50;11.77;;;;;;;6.36;47.31;100327.72;114931;1200;103133;-74
2021/03/28 20:05:52;;;;;;;22.57;10.43;;;;;;;6.33;47.49;100327.83;114905;1199;103139;-74
2021/03/28 20:08:31;;;;;;;22.85;9.85;;;;;;;6.30;47.66;100327.96;114916;1200;103095;-74
2021/03/28 20:11:14;;;;;;;21.77;9.60;;;;;;;6.27;47.40;100328.06;114807;1200;103136;-72
2021/03/28 20:13:48;;;;;;;27.10;10.50;;;;;;;6.23;47.25;100335.22;114845;1200;103150;-72
2021/03/28 20:16:23;;;;;;;21.37;8.93;;;;;;;6.19;47.38;100339.75;114797;1200;103156;-74
2021/03/28 20:18:52;;;;;;;21.70;9.40;;;;;;;6.16;47.56;100345.14;114707;1199;103067;-73
2021/03/28 20:21:23;;;;;;;22.60;9.20;;;;;;;6.11;47.47;100329.42;114918;1200;103031;-75
2021/03/28 20:24:07;;;;;;;19.57;8.87;;;;;;;6.07;47.38;100332.23;114747;1199;103069;-73
2021/03/28 20:26:44;;;;;;;;;;;;;;;6.00;47.61;100334.23;114775;1204;103006;-74
2021/03/28 20:29:13;;;;;;;36.40;19.45;;;;;;;5.96;47.46;100327.30;114753;1199;103178;-75
2021/03/28 20:31:47;;;;;;;43.27;22.17;;;;;;;5.92;47.43;100334.44;114786;1200;103136;-73
2021/03/28 20:34:26;;;;;;;24.60;11.35;;;;;;;5.87;47.48;100333.75;114863;1200;103171;-74
2021/03/28 20:36:56;;;;;;;22.87;9.23;;;;;;;5.79;47.51;100333.98;114845;1200;103053;-73
2021/03/28 20:39:24;;;;;;;23.23;10.17;;;;;;;5.76;47.52;100328.80;114917;1200;103063;-74
2021/03/28 20:41:55;;;;;;;22.17;9.90;;;;;;;5.72;47.61;100335.09;114784;1199;102763;-74
2021/03/28 20:44:26;;;;;;;22.70;10.57;;;;;;;5.67;47.25;100342.31;114922;1200;103111;-75
2021/03/28 20:46:57;;;;;;;22.93;10.50;;;;;;;5.59;47.26;100337.27;114946;1198;103124;-74
2021/03/28 20:49:29;;;;;;;21.83;9.77;;;;;;;5.51;47.31;100339.27;114860;1200;103066;-74
2021/03/28 20:52:00;;;;;;;24.83;10.53;;;;;;;5.48;47.36;100342.04;114789;1199;103034;-74
2021/03/28 20:54:35;;;;;;;21.97;10.60;;;;;;;5.46;47.80;100347.34;114990;1200;103069;-75
2021/03/28 20:57:05;;;;;;;28.97;12.97;;;;;;;5.44;47.65;100341.25;115000;1199;103125;-73
2021/03/28 20:59:33;;;;;;;116.03;62.90;;;;;;;5.41;47.79;100338.70;114949;1198;103146;-75
2021/03/28 21:02:13;;;;;;;36.93;17.90;;;;;;;5.38;47.71;100344.08;114911;1200;103133;-74
2021/03/28 21:04:48;;;;;;;26.40;12.47;;;;;;;5.34;47.56;100339.80;114945;1200;103738;-75
2021/03/28 21:07:22;;;;;;;26.80;11.80;;;;;;;5.28;47.79;100340.86;114908;1200;103630;-73
2021/03/28 21:09:52;;;;;;;25.57;11.50;;;;;;;5.22;47.55;100338.41;114858;1200;103063;-73
2021/03/28 21:12:20;;;;;;;26.43;12.27;;;;;;;5.12;47.45;100347.50;114932;1200;103066;-73
2021/03/28 21:14:51;;;;;;;33.90;14.87;;;;;;;5.02;47.89;100344.27;115136;1199;103065;-74
2021/03/28 21:17:29;;;;;;;36.83;16.87;;;;;;;4.79;47.38;100345.81;114938;1200;103082;-74
2021/03/28 21:20:00;;;;;;;34.70;17.05;;;;;;;4.54;47.68;100350.90;114916;1200;103198;-74
2021/03/28 21:22:32;;;;;;;36.93;17.70;;;;;;;4.54;47.52;100353.53;114997;1200;103030;-73
2021/03/28 21:25:07;;;;;;;36.35;17.75;;;;;;;4.51;47.85;100356.25;114969;1200;103140;-73
2021/03/28 21:27:37;;;;;;;32.30;15.10;;;;;;;4.48;48.08;100359.84;114949;1200;103034;-73
2021/03/28 21:30:07;;;;;;;28.53;13.47;;;;;;;4.46;47.68;100365.14;115015;1199;103175;-73
2021/03/28 21:32:40;;;;;;;27.67;14.10;;;;;;;4.44;47.72;100371.37;114930;1200;103191;-74
2021/03/28 21:35:10;;;;;;;31.98;15.05;;;;;;;4.40;47.95;100374.98;114925;1199;103120;-74
2021/03/28 21:37:37;;;;;;;38.65;16.35;;;;;;;4.38;47.74;100372.38;114934;1200;103181;-74
2021/03/28 21:40:14;;;;;;;33.47;17.37;;;;;;;4.39;48.28;100375.89;114930;1199;103495;-75
2021/03/28 21:42:43;;;;;;;33.80;16.17;;;;;;;4.39;48.13;100371.47;114913;1200;103525;-75
2021/03/28 21:45:12;;;;;;;33.03;16.10;;;;;;;4.37;48.37;100367.16;114913;1199;103035;-77
2021/03/28 21:47:40;;;;;;;30.87;15.50;;;;;;;4.38;48.33;100372.38;115018;1199;103066;-75
2021/03/28 21:50:12;;;;;;;33.17;16.20;;;;;;;4.38;47.91;100371.52;114978;1199;103059;-74
2021/03/28 21:52:42;;;;;;;34.10;16.30;;;;;;;4.40;48.25;100364.45;114963;1198;103231;-75
2021/03/28 21:55:25;;;;;;;37.37;16.73;;;;;;;4.41;48.63;100369.66;114936;1199;103082;-75
2021/03/28 21:58:05;;;;;;;31.90;15.93;;;;;;;4.44;48.38;100366.95;114813;1199;103062;-74
2021/03/28 22:00:43;;;;;;;34.90;15.53;;;;;;;4.46;48.51;100364.29;114780;1198;103624;-75
2021/03/28 22:03:16;;;;;;;30.73;16.07;;;;;;;4.50;48.31;100372.96;114772;1199;102979;-75
2021/03/28 22:05:44;;;;;;;;;;;;;;;4.50;49.03;100368.55;115500;1206;103118;-75
2021/03/28 22:08:19;;;;;;;33.70;16.55;;;;;;;4.50;48.84;100365.91;114931;1200;103063;-74
2021/03/28 22:10:55;;;;;;;39.30;19.40;;;;;;;4.51;48.36;100366.79;114894;1200;103079;-75
2021/03/28 22:13:34;;;;;;;42.45;20.55;;;;;;;4.51;48.90;100369.42;114904;1200;103228;-75
2021/03/28 22:16:09;;;;;;;46.70;25.40;;;;;;;4.47;48.83;100363.38;114965;1198;103525;-74
2021/03/28 22:18:39;;;;;;;62.00;31.23;;;;;;;4.41;48.56;100363.54;114923;1199;103005;-74
2021/03/28 22:21:11;;;;;;;63.75;32.25;;;;;;;4.31;48.90;100361.14;114924;1199;103133;-74
2021/03/28 22:23:43;;;;;;;67.73;33.03;;;;;;;4.22;48.47;100361.38;114841;1199;103076;-73
2021/03/28 22:26:15;;;;;;;74.37;36.40;;;;;;;4.14;48.96;100361.58;114669;1199;103175;-72
2021/03/28 22:28:53;;;;;;;75.57;38.30;;;;;;;4.06;48.76;100367.95;114833;1200;103066;-74
2021/03/28 22:31:22;;;;;;;75.87;39.30;;;;;;;3.99;48.58;100364.59;115068;1200;103057;-74
2021/03/28 22:33:51;;;;;;;78.77;40.20;;;;;;;3.94;48.84;100364.71;116030;1198;101174;-74
2021/03/28 22:36:19;;;;;;;82.83;43.20;;;;;;;3.91;48.78;100369.16;115110;1200;103181;-75
2021/03/28 22:38:50;;;;;;;82.90;39.80;;;;;;;3.81;49.06;100368.53;115200;1199;103089;-73
2021/03/28 22:41:18;;;;;;;98.10;45.40;;;;;;;3.54;48.19;100370.92;114944;1199;102871;-74
2021/03/28 22:43:46;;;;;;;86.00;42.95;;;;;;;3.31;48.62;100371.42;114764;1198;103543;-74
2021/03/28 22:46:19;;;;;;;93.60;47.07;;;;;;;3.06;48.20;100371.93;115260;1199;103139;-74
2021/03/28 22:48:50;;;;;;;91.37;45.10;;;;;;;2.83;48.07;100368.02;114860;1199;103069;-75
2021/03/28 22:51:29;;;;;;;97.00;50.50;;;;;;;2.70;48.61;100369.14;114796;1200;103090;-76
2021/03/28 22:54:27;;;;;;;95.60;47.50;;;;;;;2.48;48.48;100374.82;114775;1199;103031;-74
2021/03/28 22:57:06;;;;;;;95.07;45.97;;;;;;;2.27;48.58;100366.42;114824;1198;103184;-73
2021/03/28 22:59:42;;;;;;;88.15;45.40;;;;;;;2.16;48.78;100368.39;114769;1199;103256;-74
2021/03/28 23:02:17;;;;;;;93.27;46.40;;;;;;;1.97;49.02;100371.30;116365;1199;103198;-73
2021/03/28 23:04:46;;;;;;;85.90;45.00;;;;;;;1.84;49.16;100370.64;114832;1199;103040;-73
2021/03/28 23:07:20;;;;;;;88.70;46.97;;;;;;;1.83;49.10;100371.53;114702;1199;103063;-74
2021/03/28 23:09:47;;;;;;;87.30;45.60;;;;;;;1.87;49.61;100365.34;114871;1200;103309;-74
2021/03/28 23:12:25;;;;;;;73.80;37.33;;;;;;;1.95;49.25;100366.98;114962;1200;103139;-76
2021/03/28 23:14:53;;;;;;;63.53;34.07;;;;;;;1.98;49.67;100366.94;114728;1199;103396;-74
2021/03/28 23:17:22;;;;;;;81.60;42.50;;;;;;;2.04;49.94;100372.94;115285;1200;105735;-74
2021/03/28 23:19:55;;;;;;;77.23;41.47;;;;;;;2.13;50.30;100376.31;114876;1198;103152;-75
2021/03/28 23:22:23;;;;;;;83.83;41.33;;;;;;;2.21;49.94;100366.55;114858;1200;103111;-74
2021/03/28 23:24:51;;;;;;;67.50;37.90;;;;;;;2.27;50.09;100366.42;114740;1198;103070;-74
2021/03/28 23:27:21;;;;;;;76.00;38.73;;;;;;;2.33;50.48;100365.47;114607;1200;103031;-75
2021/03/28 23:29:49;;;;;;;66.93;37.50;;;;;;;2.35;50.34;100369.78;114794;1200;103532;-74
2021/03/28 23:32:16;;;;;;;65.30;34.25;;;;;;;2.39;50.46;100373.23;114877;1199;103079;-74
2021/03/28 23:34:43;;;;;;;62.50;34.20;;;;;;;2.42;50.58;100372.30;114650;1198;103175;-76
2021/03/28 23:37:09;;;;;;;62.35;32.85;;;;;;;2.46;50.37;100373.98;114956;1199;101834;-74
2021/03/28 23:39:43;;;;;;;57.50;33.03;;;;;;;2.50;50.56;100366.00;114819;1199;103807;-75
2021/03/28 23:42:16;;;;;;;60.70;32.27;;;;;;;2.52;50.57;100379.98;114828;1198;103040;-75
2021/03/28 23:44:47;;;;;;;59.50;30.83;;;;;;;2.55;50.80;100376.45;114935;1200;103009;-75
2021/03/28 23:47:24;;;;;;;55.15;28.55;;;;;;;2.53;50.62;100371.20;114741;1200;103211;-75
2021/03/28 23:49:56;;;;;;;60.30;31.00;;;;;;;2.58;51.01;100371.14;114840;1199;103057;-75
2021/03/28 23:52:30;;;;;;;61.70;33.77;;;;;;;2.59;50.95;100364.98;114906;1199;103175;-74
2021/03/28 23:54:59;;;;;;;59.93;30.73;;;;;;;2.61;50.99;100373.70;114878;1199;103031;-73
2021/03/28 23:57:28;;;;;;;58.25;29.95;;;;;;;2.63;51.22;100365.78;114916;1200;103178;-73
